Time;durP1;ratioP1;P1;durP2;ratioP2;P2;SDS_P1;SDS_P2;PMS_P1;PMS_P2;Temp;Humidity;BMP_temperature;BMP_pressure;BME280_temperature;BME280_humidity;BME280_pressure;Samples;Min_cycle;Max_cycle;Signal;HPM_P1;HPM_P2
2021/11/21 00:01:12;;;;;;;11.95;5.60;;;;;;;8.69;100.00;100964.50;10199423;28;20076;-68
2021/11/21 00:06:09;;;;;;;10.85;4.68;;;;;;;8.70;100.00;100960.63;10184311;28;20060;-69
2021/11/21 00:11:06;;;;;;;12.15;5.07;;;;;;;8.66;100.00;100949.53;10203924;28;20053;-69
2021/11/21 00:16:04;;;;;;;9.52;5.55;;;;;;;8.60;100.00;100940.63;10200352;28;20050;-69
2021/11/21 00:21:01;;;;;;;8.57;4.93;;;;;;;8.65;100.00;100934.28;10208437;28;20052;-70
2021/11/21 00:25:58;;;;;;;10.15;4.63;;;;;;;8.66;100.00;100941.38;10201217;28;20123;-67
2021/11/21 00:30:54;;;;;;;10.73;4.70;;;;;;;8.67;100.00;100925.81;10204860;28;20049;-68
2021/11/21 00:35:51;;;;;;;9.00;4.35;;;;;;;8.67;100.00;100909.47;10212707;28;20046;-69
2021/11/21 00:40:47;;;;;;;9.70;4.50;;;;;;;8.68;100.00;100902.88;10214572;28;20053;-69
2021/11/21 00:45:44;;;;;;;11.30;4.05;;;;;;;8.59;100.00;100892.69;10205328;28;20038;-68
2021/11/21 00:50:41;;;;;;;12.43;4.38;;;;;;;8.62;100.00;100881.19;10208120;28;20709;-68
2021/11/21 00:55:39;;;;;;;9.07;3.97;;;;;;;8.64;100.00;100868.06;10208359;28;20072;-69
2021/11/21 01:00:37;;;;;;;9.40;4.00;;;;;;;8.67;100.00;100880.28;10196665;28;20144;-68
2021/11/21 01:05:34;;;;;;;10.68;4.20;;;;;;;8.72;100.00;100868.47;10201910;28;20451;-69
2021/11/21 01:10:32;;;;;;;10.32;3.92;;;;;;;8.71;100.00;100861.41;10210873;28;20033;-70
2021/11/21 01:15:28;;;;;;;8.30;3.72;;;;;;;8.69;100.00;100852.72;10202536;28;20098;-70
2021/11/21 01:20:28;;;;;;;9.18;3.85;;;;;;;8.66;100.00;100837.78;10203783;28;20095;-71
2021/11/21 01:25:26;;;;;;;7.07;3.72;;;;;;;8.71;100.00;100828.69;10204459;28;20500;-70
2021/11/21 01:30:27;;;;;;;10.18;3.95;;;;;;;8.71;100.00;100820.53;10202674;28;20099;-69
2021/11/21 01:35:24;;;;;;;9.68;3.95;;;;;;;8.76;100.00;100825.88;10209312;28;20487;-70
2021/11/21 01:40:22;;;;;;;10.13;4.40;;;;;;;8.74;100.00;100828.09;10206291;28;20093;-70
2021/11/21 01:45:19;;;;;;;9.57;3.78;;;;;;;8.77;100.00;100816.56;10195985;28;20104;-71
2021/11/21 01:50:19;;;;;;;9.02;3.85;;;;;;;8.77;100.00;100808.38;10193874;28;20050;-71
2021/11/21 01:55:17;;;;;;;9.85;4.10;;;;;;;8.75;100.00;100807.88;10198155;28;20101;-70
2021/11/21 02:00:17;;;;;;;9.40;4.05;;;;;;;8.70;100.00;100805.25;10196096;28;20063;-70
2021/11/21 02:05:14;;;;;;;8.38;4.15;;;;;;;8.71;100.00;100790.53;10194016;28;20061;-70
2021/11/21 02:10:13;;;;;;;9.98;4.50;;;;;;;8.74;100.00;100789.91;10189685;28;20104;-70
2021/11/21 02:15:12;;;;;;;9.23;4.18;;;;;;;8.76;100.00;100768.63;10198369;28;20057;-69
2021/11/21 02:20:13;;;;;;;8.63;4.72;;;;;;;8.69;100.00;100774.47;10214218;28;21186;-70
2021/11/21 02:25:11;;;;;;;11.02;5.28;;;;;;;8.76;100.00;100768.63;10197978;28;20049;-70
2021/11/21 02:30:09;;;;;;;7.85;4.68;;;;;;;8.79;100.00;100768.00;10209626;28;20499;-70
2021/11/21 02:35:06;;;;;;;12.15;5.20;;;;;;;8.83;100.00;100766.28;10193771;28;20112;-70
2021/11/21 02:40:02;;;;;;;12.50;6.25;;;;;;;8.71;100.00;100763.28;10201586;28;20076;-70
2021/11/21 02:44:59;;;;;;;12.48;7.05;;;;;;;8.60;100.00;100777.09;10210579;28;20045;-72
2021/11/21 02:49:55;;;;;;;11.88;7.07;;;;;;;8.53;100.00;100773.97;10193640;28;20077;-72
2021/11/21 02:54:54;;;;;;;13.15;8.20;;;;;;;8.48;100.00;100768.63;10198744;28;20448;-71
2021/11/21 02:59:51;;;;;;;12.60;7.72;;;;;;;8.47;100.00;100760.75;10205518;28;20103;-70
2021/11/21 03:04:51;;;;;;;16.17;8.95;;;;;;;8.42;100.00;100761.66;10207891;28;20095;-72
2021/11/21 03:09:49;;;;;;;13.95;9.15;;;;;;;8.37;100.00;100761.72;10198858;28;20142;-70
2021/11/21 03:14:46;;;;;;;15.93;10.35;;;;;;;8.38;100.00;100755.97;10197339;28;20042;-71
2021/11/21 03:19:42;;;;;;;16.92;9.57;;;;;;;8.35;100.00;100750.31;10192665;28;20041;-71
2021/11/21 03:24:39;;;;;;;15.68;10.32;;;;;;;8.38;100.00;100749.72;10189810;28;20042;-70
2021/11/21 03:29:36;;;;;;;17.88;10.93;;;;;;;8.33;100.00;100747.09;10188694;28;20563;-72
2021/11/21 03:34:34;;;;;;;17.40;11.27;;;;;;;8.39;100.00;100757.59;10204787;28;20484;-74
2021/11/21 03:39:31;;;;;;;18.13;11.05;;;;;;;8.47;100.00;100764.31;10199303;28;20073;-71
2021/11/21 03:44:27;;;;;;;15.55;11.20;;;;;;;8.50;100.00;100769.13;10209225;28;20529;-71
2021/11/21 03:49:24;;;;;;;13.05;8.68;;;;;;;8.41;100.00;100758.13;10195796;28;20049;-70
2021/11/21 03:54:20;;;;;;;11.00;7.72;;;;;;;8.47;100.00;100749.84;10206148;28;20136;-71
2021/11/21 03:59:19;;;;;;;8.80;5.80;;;;;;;8.47;100.00;100758.84;10198022;28;20042;-72
2021/11/21 04:04:18;;;;;;;10.23;6.18;;;;;;;8.49;100.00;100755.81;10208428;28;20473;-73
2021/11/21 04:09:14;;;;;;;8.93;6.20;;;;;;;8.50;100.00;100758.22;10206301;28;20091;-71
2021/11/21 04:14:11;;;;;;;10.05;5.93;;;;;;;8.47;100.00;100747.94;10210388;28;20797;-71
2021/11/21 04:19:09;;;;;;;10.38;6.43;;;;;;;8.49;100.00;100744.91;10194510;28;20124;-71
2021/11/21 04:24:08;;;;;;;10.68;6.10;;;;;;;8.49;100.00;100751.16;10209534;28;20100;-72
2021/11/21 04:29:05;;;;;;;15.00;7.82;;;;;;;8.52;100.00;100750.56;10196032;28;20042;-72
2021/11/21 04:34:01;;;;;;;10.23;5.63;;;;;;;8.48;100.00;100746.81;10208188;28;20042;-71
2021/11/21 04:38:58;;;;;;;8.45;4.60;;;;;;;8.45;100.00;100736.53;10199352;28;20080;-72
2021/11/21 04:43:54;;;;;;;6.22;3.50;;;;;;;8.45;100.00;100749.34;10213893;28;20505;-72
2021/11/21 04:48:51;;;;;;;8.02;3.00;;;;;;;8.43;100.00;100750.47;10205684;28;20496;-71
2021/11/21 04:53:47;;;;;;;8.20;3.22;;;;;;;8.44;100.00;100737.63;10215351;28;20053;-71
2021/11/21 04:58:44;;;;;;;7.22;2.30;;;;;;;8.48;100.00;100737.84;10196750;28;20046;-71
2021/11/21 05:03:40;;;;;;;8.57;2.67;;;;;;;8.53;100.00;100735.81;10206439;28;20080;-71
2021/11/21 05:08:38;;;;;;;7.45;2.20;;;;;;;8.59;100.00;100733.81;10204342;28;20042;-69
2021/11/21 05:13:34;;;;;;;6.82;1.52;;;;;;;8.59;100.00;100745.50;10207091;28;20132;-72
2021/11/21 05:18:30;;;;;;;9.48;2.38;;;;;;;8.58;100.00;100738.44;10208771;28;20069;-71
2021/11/21 05:23:27;;;;;;;10.70;1.42;;;;;;;8.59;100.00;100733.81;10208502;28;20095;-71
2021/11/21 05:28:23;;;;;;;6.97;1.33;;;;;;;8.61;100.00;100732.41;10198745;28;20111;-71
2021/11/21 05:33:20;;;;;;;9.00;2.58;;;;;;;8.56;100.00;100735.22;10209390;28;20104;-71
2021/11/21 05:38:16;;;;;;;5.88;1.30;;;;;;;8.57;100.00;100731.38;10203936;28;20095;-70
2021/11/21 05:43:13;;;;;;;7.70;1.73;;;;;;;8.55;100.00;100733.59;10200529;28;20070;-72
2021/11/21 05:48:12;;;;;;;6.82;1.63;;;;;;;8.62;100.00;100728.53;10213248;28;20092;-71
2021/11/21 05:53:08;;;;;;;10.30;2.83;;;;;;;8.55;100.00;100733.59;10194585;28;20084;-71
2021/11/21 05:58:05;;;;;;;11.73;3.35;;;;;;;8.55;100.00;100732.81;10207746;28;20049;-70
2021/11/21 06:03:01;;;;;;;8.07;1.60;;;;;;;8.52;100.00;100734.22;10198818;28;20046;-72
2021/11/21 06:07:58;;;;;;;8.48;1.70;;;;;;;8.48;100.00;100727.75;10207407;28;20077;-71
2021/11/21 06:12:55;;;;;;;11.73;2.72;;;;;;;8.51;100.00;100732.59;10201237;28;20080;-71
2021/11/21 06:17:51;;;;;;;11.23;1.80;;;;;;;8.42;100.00;100726.22;10202600;28;20099;-72
2021/11/21 06:22:48;;;;;;;13.02;1.95;;;;;;;8.34;100.00;100726.91;10200517;28;20099;-70
2021/11/21 06:27:44;;;;;;;11.77;2.85;;;;;;;8.34;100.00;100732.38;10204898;28;20041;-71
2021/11/21 06:32:41;;;;;;;13.35;2.28;;;;;;;8.29;100.00;100732.47;10214642;28;20053;-69
2021/11/21 06:37:38;;;;;;;16.00;2.00;;;;;;;8.30;100.00;100731.34;10205586;28;20077;-69
2021/11/21 06:42:34;;;;;;;10.35;1.65;;;;;;;8.26;100.00;100730.34;10205653;28;20128;-71
2021/11/21 06:47:31;;;;;;;17.08;2.00;;;;;;;8.31;100.00;100732.94;10199970;28;20045;-70
2021/11/21 06:52:30;;;;;;;13.68;2.20;;;;;;;8.28;100.00;100739.00;10198754;28;20499;-73
2021/11/21 06:57:27;;;;;;;15.50;2.35;;;;;;;8.29;100.00;100735.19;10198698;28;20069;-70
2021/11/21 07:02:24;;;;;;;17.02;2.15;;;;;;;8.30;100.00;100747.69;10189914;28;20125;-70
2021/11/21 07:07:20;;;;;;;20.05;2.28;;;;;;;8.27;100.00;100742.84;10191064;28;20073;-69
2021/11/21 07:12:17;;;;;;;15.52;3.70;;;;;;;8.27;100.00;100745.59;10188507;28;20076;-69
2021/11/21 07:17:33;;;;;;;15.23;2.40;;;;;;;8.27;100.00;100753.75;10207063;28;20041;-70
2021/11/21 07:22:32;;;;;;;9.85;2.08;;;;;;;8.19;100.00;100747.91;10204770;28;20552;-71
2021/11/21 07:27:28;;;;;;;12.63;1.58;;;;;;;8.13;100.00;100754.53;10200744;28;20129;-72
2021/11/21 07:32:25;;;;;;;15.18;2.65;;;;;;;8.11;100.00;100756.75;10204175;28;20107;-73
2021/11/21 07:37:21;;;;;;;16.45;2.80;;;;;;;8.08;100.00;100760.09;10197566;28;20046;-69
2021/11/21 07:42:19;;;;;;;11.95;3.80;;;;;;;8.10;100.00;100765.22;10188038;28;20045;-71
2021/11/21 07:47:16;;;;;;;13.20;3.50;;;;;;;8.12;100.00;100769.28;10186678;28;20132;-73
2021/11/21 07:52:13;;;;;;;12.05;2.58;;;;;;;8.05;100.00;100768.84;10189536;28;20084;-73
2021/11/21 07:57:10;;;;;;;13.20;2.90;;;;;;;8.01;100.00;100784.97;10196357;28;20099;-74
2021/11/21 08:02:07;;;;;;;11.80;2.90;;;;;;;8.00;100.00;100777.91;10186704;28;20053;-70
2021/11/21 08:07:07;;;;;;;13.77;2.50;;;;;;;8.12;100.00;100785.63;10184593;28;20579;-72
2021/11/21 08:12:04;;;;;;;18.65;3.30;;;;;;;8.13;100.00;100789.94;10189196;28;20141;-69
2021/11/21 08:17:02;;;;;;;9.50;2.38;;;;;;;8.23;100.00;100787.03;10193198;28;20478;-72
2021/11/21 08:21:58;;;;;;;13.48;4.40;;;;;;;8.23;100.00;100802.56;10197956;28;20069;-73
2021/11/21 08:26:56;;;;;;;12.02;3.83;;;;;;;8.20;100.00;100798.53;10210331;28;20324;-74
2021/11/21 08:31:53;;;;;;;12.82;4.00;;;;;;;8.26;100.00;100796.50;10202139;28;20092;-73
2021/11/21 08:36:50;;;;;;;19.83;3.08;;;;;;;8.36;100.00;100796.34;10206726;28;20062;-75
2021/11/21 08:41:47;;;;;;;12.57;2.67;;;;;;;8.43;100.00;100802.22;10200824;28;20065;-72
2021/11/21 08:46:45;;;;;;;15.88;2.55;;;;;;;8.53;100.00;100794.97;10192531;28;20073;-73
2021/11/21 08:51:45;;;;;;;16.67;2.55;;;;;;;8.48;100.00;100804.06;10199041;28;20045;-72
2021/11/21 08:56:46;;;;;;;16.75;4.22;;;;;;;8.47;100.00;100796.16;10205957;28;20098;-73
2021/11/21 09:01:43;;;;;;;16.23;2.70;;;;;;;8.45;100.00;100804.66;10196796;28;20068;-70
2021/11/21 09:06:42;;;;;;;18.58;3.22;;;;;;;8.39;100.00;100801.19;10209062;28;20096;-72
2021/11/21 09:11:39;;;;;;;11.75;1.90;;;;;;;8.45;100.00;100792.94;10194515;28;20139;-70
2021/11/21 09:16:35;;;;;;;10.25;1.52;;;;;;;8.53;100.00;100803.94;10204467;28;20380;-71
2021/11/21 09:21:32;;;;;;;9.50;1.48;;;;;;;8.60;100.00;100811.72;10192019;28;20073;-70
2021/11/21 09:26:29;;;;;;;16.95;4.00;;;;;;;8.58;100.00;100805.75;10205042;28;20045;-70
2021/11/21 09:31:26;;;;;;;12.32;1.67;;;;;;;8.64;100.00;100797.19;10207378;28;20054;-69
2021/11/21 09:36:23;;;;;;;12.18;1.85;;;;;;;8.80;100.00;100805.06;10205754;28;20053;-69
2021/11/21 09:41:19;;;;;;;12.02;3.08;;;;;;;8.98;100.00;100806.06;10205319;28;20115;-71
2021/11/21 09:46:17;;;;;;;15.23;2.63;;;;;;;8.93;100.00;100804.25;10205148;28;20041;-75
2021/11/21 09:51:14;;;;;;;12.23;1.73;;;;;;;9.05;100.00;100798.25;10197044;28;20129;-74
2021/11/21 09:56:10;;;;;;;16.48;1.77;;;;;;;8.95;100.00;100810.19;10200869;28;20137;-71
2021/11/21 10:01:38;;;;;;;13.40;2.00;;;;;;;8.76;100.00;100809.50;10200731;28;20046;-72
2021/11/21 10:06:48;;;;;;;15.85;2.70;;;;;;;8.79;100.00;100806.16;10185618;28;20041;-73
2021/11/21 10:12:05;;;;;;;16.67;1.80;;;;;;;9.00;100.00;100809.28;10186731;28;20080;-70
2021/11/21 10:17:17;;;;;;;13.73;2.20;;;;;;;8.98;100.00;100806.88;10200854;28;20084;-71
2021/11/21 10:22:14;;;;;;;13.95;1.88;;;;;;;9.10;100.00;100813.72;10195491;28;20050;-69
2021/11/21 10:27:19;;;;;;;15.35;1.70;;;;;;;9.25;100.00;100806.00;10192537;28;20088;-71
2021/11/21 10:32:17;;;;;;;12.15;2.25;;;;;;;9.36;100.00;100805.81;10187618;28;20128;-70
2021/11/21 10:37:13;;;;;;;7.32;1.52;;;;;;;9.03;100.00;100823.13;10186376;28;20050;-70
2021/11/21 10:42:30;;;;;;;9.93;1.35;;;;;;;8.87;100.00;100816.38;10171772;28;20033;-69
2021/11/21 10:47:44;;;;;;;10.68;1.40;;;;;;;8.70;100.00;100794.38;10195018;28;20716;-70
2021/11/21 10:52:46;;;;;;;12.23;1.33;;;;;;;8.71;100.00;100796.00;10183275;28;20404;-69
2021/11/21 10:57:43;;;;;;;10.88;1.50;;;;;;;8.86;100.00;100803.84;10179561;28;20065;-69
2021/11/21 11:02:41;;;;;;;6.13;0.80;;;;;;;8.95;100.00;100793.84;10181899;28;20041;-69
2021/11/21 11:07:47;;;;;;;5.13;0.90;;;;;;;9.00;100.00;100799.19;10182505;28;20543;-70
2021/11/21 11:12:46;;;;;;;4.78;0.82;;;;;;;9.10;100.00;100800.06;10174539;28;20108;-69
2021/11/21 11:17:43;;;;;;;6.78;1.50;;;;;;;9.27;100.00;100802.97;10174328;28;20099;-68
2021/11/21 11:22:40;;;;;;;7.40;1.20;;;;;;;9.37;100.00;100791.84;10178624;28;20104;-69
2021/11/21 11:28:16;;;;;;;7.93;1.95;;;;;;;9.46;100.00;100791.91;10180593;28;20487;-69
2021/11/21 11:33:15;;;;;;;11.80;1.52;;;;;;;9.52;100.00;100792.63;10150493;28;20571;-66
2021/11/21 11:38:30;;;;;;;10.10;1.48;;;;;;;9.51;100.00;100797.25;10184456;28;20112;-66
2021/11/21 11:43:33;;;;;;;10.52;1.30;;;;;;;9.48;100.00;100792.41;10174626;28;20042;-67
2021/11/21 11:48:40;;;;;;;16.27;1.70;;;;;;;9.53;100.00;100788.75;10179000;28;20119;-68
2021/11/21 11:53:43;;;;;;;14.05;2.13;;;;;;;9.56;100.00;100793.59;10176694;28;20056;-70
2021/11/21 11:58:56;;;;;;;14.95;1.48;;;;;;;9.62;100.00;100786.91;10183579;28;20099;-69
2021/11/21 12:03:52;;;;;;;9.23;1.30;;;;;;;9.67;100.00;100794.97;10172572;28;20437;-69
2021/11/21 12:09:18;;;;;;;14.50;2.00;;;;;;;9.85;100.00;100790.44;10168248;28;20050;-69
2021/11/21 12:14:35;;;;;;;14.10;1.55;;;;;;;9.97;100.00;100798.06;10175493;28;20046;-69
2021/11/21 12:19:56;;;;;;;10.23;1.70;;;;;;;10.13;100.00;100793.84;10186191;28;20078;-69
2021/11/21 12:24:56;;;;;;;7.90;1.30;;;;;;;10.17;100.00;100792.09;10186919;28;20100;-69
2021/11/21 12:30:13;;;;;;;11.95;1.30;;;;;;;10.39;98.31;100788.53;10194051;28;20120;-69
2021/11/21 12:35:25;;;;;;;13.23;1.63;;;;;;;10.53;94.06;100783.75;10181266;28;20455;-69
2021/11/21 12:40:26;;;;;;;9.18;1.25;;;;;;;10.65;92.92;100779.63;10181759;28;20054;-70
2021/11/21 12:45:26;;;;;;;14.45;2.35;;;;;;;10.66;92.02;100773.84;10178824;28;20145;-69
2021/11/21 12:50:36;;;;;;;9.15;1.10;;;;;;;10.38;93.17;100780.66;10184533;28;20670;-70
2021/11/21 12:55:44;;;;;;;13.52;1.48;;;;;;;10.47;96.13;100773.31;10179289;28;21418;-70
2021/11/21 13:00:41;;;;;;;8.73;1.27;;;;;;;10.97;90.31;100775.69;10189620;28;20073;-69
2021/11/21 13:05:40;;;;;;;9.18;1.10;;;;;;;11.01;87.46;100782.13;10197061;28;20055;-71
2021/11/21 13:10:38;;;;;;;6.35;0.80;;;;;;;10.66;86.02;100776.56;10197213;28;20065;-69
2021/11/21 13:15:35;;;;;;;8.52;1.02;;;;;;;10.34;88.09;100785.13;10204231;28;20041;-69
2021/11/21 13:20:33;;;;;;;7.82;1.70;;;;;;;10.05;91.86;100772.75;10206751;28;20045;-68
2021/11/21 13:25:43;;;;;;;12.73;0.70;;;;;;;9.58;94.05;100792.16;10210846;28;20046;-70
2021/11/21 13:30:39;;;;;;;8.68;1.67;;;;;;;9.50;96.54;100783.94;10189921;28;20045;-69
2021/11/21 13:35:36;;;;;;;8.55;1.23;;;;;;;9.34;99.61;100792.47;10195580;28;20061;-70
2021/11/21 13:40:32;;;;;;;8.02;1.13;;;;;;;9.15;100.00;100794.53;10193743;28;20045;-68
2021/11/21 13:45:29;;;;;;;6.95;1.15;;;;;;;9.63;99.62;100799.44;10186587;28;20790;-69
2021/11/21 13:50:32;;;;;;;7.43;0.85;;;;;;;9.82;97.19;100811.00;10188125;28;20069;-70
2021/11/21 13:55:29;;;;;;;12.65;2.65;;;;;;;9.58;97.37;100813.19;10186227;28;20459;-70
2021/11/21 14:00:27;;;;;;;9.05;1.63;;;;;;;9.38;100.00;100826.22;10186412;28;20069;-70
2021/11/21 14:05:25;;;;;;;8.63;1.45;;;;;;;9.17;100.00;100830.50;10187357;28;20034;-70
2021/11/21 14:10:31;;;;;;;11.88;1.35;;;;;;;9.15;100.00;100838.19;10212688;28;20131;-69
2021/11/21 14:15:28;;;;;;;12.10;1.38;;;;;;;9.10;100.00;100841.00;10186810;28;20049;-69
2021/11/21 14:20:45;;;;;;;9.88;1.10;;;;;;;9.02;100.00;100846.06;10183771;28;20132;-70
2021/11/21 14:25:45;;;;;;;6.88;1.50;;;;;;;9.06;100.00;100855.25;10182801;28;20050;-70
2021/11/21 14:30:43;;;;;;;9.40;1.40;;;;;;;9.00;100.00;100859.19;10187673;28;20507;-69
2021/11/21 14:35:45;;;;;;;6.07;1.17;;;;;;;8.92;100.00;100862.63;10182078;28;20136;-70
2021/11/21 14:41:07;;;;;;;9.15;1.42;;;;;;;8.89;100.00;100874.16;10179315;28;20065;-69
2021/11/21 14:46:03;;;;;;;8.75;1.20;;;;;;;8.80;100.00;100875.97;10178002;28;20041;-69
2021/11/21 14:51:00;;;;;;;11.52;1.85;;;;;;;8.85;100.00;100873.94;10184897;28;20094;-68
2021/11/21 14:56:00;;;;;;;9.63;1.15;;;;;;;8.86;100.00;100882.91;10182725;28;20149;-70
2021/11/21 15:01:00;;;;;;;9.13;2.50;;;;;;;8.72;100.00;100890.28;10182892;28;20081;-70
2021/11/21 15:05:57;;;;;;;7.95;1.50;;;;;;;8.70;100.00;100904.19;10182109;28;20108;-70
2021/11/21 15:10:55;;;;;;;17.75;3.60;;;;;;;8.71;100.00;100916.75;10175945;28;20095;-71
2021/11/21 15:15:52;;;;;;;10.90;2.30;;;;;;;8.75;100.00;100923.22;10179228;28;20156;-70
2021/11/21 15:20:49;;;;;;;7.63;1.35;;;;;;;8.79;100.00;100935.13;10187391;28;20137;-69
2021/11/21 15:25:46;;;;;;;11.13;1.30;;;;;;;8.86;100.00;100945.63;10177609;28;20546;-69
2021/11/21 15:30:43;;;;;;;6.40;0.80;;;;;;;8.76;100.00;100956.72;10184916;28;20042;-69
2021/11/21 15:35:40;;;;;;;7.90;1.20;;;;;;;8.53;100.00;100947.59;10177591;28;20078;-71
2021/11/21 15:40:37;;;;;;;5.93;1.23;;;;;;;8.41;100.00;100956.22;10184833;28;20459;-70
2021/11/21 15:45:34;;;;;;;4.38;0.82;;;;;;;8.27;100.00;100949.88;10177628;28;20153;-70
2021/11/21 15:50:31;;;;;;;5.70;1.27;;;;;;;8.20;100.00;100966.59;10178956;28;20074;-70
2021/11/21 15:55:28;;;;;;;2.83;0.77;;;;;;;8.14;100.00;100976.75;10172593;28;20126;-71
2021/11/21 16:00:25;;;;;;;5.35;1.38;;;;;;;8.01;100.00;100981.03;10180568;28;20463;-69
2021/11/21 16:05:21;;;;;;;5.65;1.00;;;;;;;7.93;100.00;100994.50;10180880;28;20142;-69
2021/11/21 16:10:20;;;;;;;10.15;2.30;;;;;;;7.91;100.00;100996.69;10182251;28;20543;-68
2021/11/21 16:15:19;;;;;;;7.32;1.67;;;;;;;7.80;100.00;100999.56;10179233;28;20076;-69
2021/11/21 16:20:17;;;;;;;4.28;1.10;;;;;;;7.82;100.00;101009.34;10178985;28;20108;-70
2021/11/21 16:25:16;;;;;;;8.95;1.60;;;;;;;7.94;100.00;101015.19;10196536;28;20050;-71
2021/11/21 16:30:15;;;;;;;8.90;1.85;;;;;;;7.96;100.00;101021.13;10188901;28;20764;-68
2021/11/21 16:35:11;;;;;;;6.47;1.33;;;;;;;7.97;100.00;101022.75;10187515;28;20060;-68
2021/11/21 16:40:12;;;;;;;5.93;1.23;;;;;;;8.00;100.00;101027.59;10209447;28;20073;-68
2021/11/21 16:45:09;;;;;;;8.48;3.38;;;;;;;8.00;100.00;101033.84;10193292;28;20050;-69
2021/11/21 16:50:06;;;;;;;7.72;2.30;;;;;;;8.09;100.00;101034.03;10190316;28;20062;-68
2021/11/21 16:55:04;;;;;;;4.25;1.20;;;;;;;8.03;100.00;101048.81;10191733;28;20077;-68
2021/11/21 17:00:02;;;;;;;6.93;1.70;;;;;;;8.06;100.00;101052.88;10198998;28;20115;-70
2021/11/21 17:04:58;;;;;;;5.80;1.75;;;;;;;7.96;100.00;101061.97;10188866;28;20423;-71
2021/11/21 17:09:55;;;;;;;3.92;1.13;;;;;;;7.89;100.00;101091.47;10191522;28;20046;-70
2021/11/21 17:14:53;;;;;;;4.68;1.13;;;;;;;7.92;100.00;101102.59;10199139;28;20046;-69
2021/11/21 17:19:53;;;;;;;4.03;1.42;;;;;;;7.91;100.00;101100.94;10198184;28;20050;-69
2021/11/21 17:24:56;;;;;;;8.00;1.73;;;;;;;7.92;100.00;101107.22;10184662;28;20049;-68
2021/11/21 17:29:53;;;;;;;5.70;1.50;;;;;;;7.84;100.00;101116.03;10182435;28;20609;-69
2021/11/21 17:34:51;;;;;;;5.38;1.50;;;;;;;7.75;100.00;101133.00;10188023;28;20061;-68
2021/11/21 17:39:48;;;;;;;5.93;1.65;;;;;;;7.49;100.00;101142.50;10185562;28;20056;-68
2021/11/21 17:44:45;;;;;;;5.28;1.17;;;;;;;7.35;100.00;101142.34;10180368;28;20092;-68
2021/11/21 17:49:46;;;;;;;3.95;1.27;;;;;;;7.19;100.00;101155.28;10182799;28;20073;-69
2021/11/21 17:54:43;;;;;;;7.38;1.30;;;;;;;7.15;100.00;101170.56;10206349;28;20503;-69
2021/11/21 17:59:40;;;;;;;5.50;1.35;;;;;;;6.94;100.00;101173.41;10191947;28;20072;-69
2021/11/21 18:04:36;;;;;;;4.60;1.48;;;;;;;7.14;100.00;101168.91;10193131;28;20562;-69
2021/11/21 18:09:33;;;;;;;5.90;1.60;;;;;;;7.12;100.00;101192.84;10186527;28;20049;-68
2021/11/21 18:14:32;;;;;;;5.50;1.73;;;;;;;7.29;100.00;101204.16;10176427;28;20038;-67
2021/11/21 18:19:28;;;;;;;4.75;1.00;;;;;;;7.29;100.00;101208.81;10186874;28;20137;-68
2021/11/21 18:24:25;;;;;;;3.95;1.23;;;;;;;7.28;100.00;101227.00;10188952;28;20050;-67
2021/11/21 18:29:21;;;;;;;4.13;1.33;;;;;;;7.22;100.00;101230.88;10187149;28;20050;-69
2021/11/21 18:34:18;;;;;;;4.65;1.60;;;;;;;7.19;100.00;101244.22;10175404;28;20100;-68
2021/11/21 18:39:15;;;;;;;5.28;1.17;;;;;;;7.04;100.00;101256.00;10181183;28;20092;-67
2021/11/21 18:44:13;;;;;;;4.22;1.27;;;;;;;7.03;100.00;101267.97;10179404;28;20096;-67
2021/11/21 18:49:09;;;;;;;4.65;1.92;;;;;;;6.94;100.00;101276.72;10186837;28;20415;-67
2021/11/21 18:54:06;;;;;;;7.13;2.30;;;;;;;6.94;100.00;101284.88;10190753;28;20072;-67
2021/11/21 18:59:12;;;;;;;4.53;1.23;;;;;;;6.91;100.00;101307.16;10189657;28;20057;-67
2021/11/21 19:04:08;;;;;;;3.85;1.45;;;;;;;6.87;100.00;101317.00;10188156;28;20109;-67
2021/11/21 19:09:06;;;;;;;5.38;1.10;;;;;;;6.99;100.00;101318.56;10197604;28;20045;-67
2021/11/21 19:14:03;;;;;;;7.55;1.80;;;;;;;6.97;100.00;101331.63;10191474;28;20099;-68
2021/11/21 19:18:59;;;;;;;3.78;1.20;;;;;;;6.94;100.00;101354.75;10185106;28;20078;-68
2021/11/21 19:23:56;;;;;;;5.47;2.10;;;;;;;6.94;100.00;101355.56;10189274;28;20468;-69
2021/11/21 19:28:53;;;;;;;4.63;1.58;;;;;;;6.93;100.00;101364.78;10196422;28;20072;-68
2021/11/21 19:33:50;;;;;;;6.57;1.50;;;;;;;6.97;100.00;101375.13;10189795;28;20744;-68
2021/11/21 19:38:50;;;;;;;4.30;1.35;;;;;;;6.80;100.00;101376.28;10185122;28;20189;-70
2021/11/21 19:43:47;;;;;;;5.47;1.45;;;;;;;6.82;100.00;101395.81;10207993;28;20083;-68
2021/11/21 19:48:44;;;;;;;4.78;1.40;;;;;;;6.64;100.00;101404.56;10193893;28;20557;-69
2021/11/21 19:53:42;;;;;;;5.82;1.55;;;;;;;6.57;100.00;101410.28;10190424;28;20054;-69
2021/11/21 19:58:39;;;;;;;4.72;1.40;;;;;;;6.47;100.00;101427.38;10173908;28;20049;-69
2021/11/21 20:03:36;;;;;;;5.20;1.40;;;;;;;6.47;100.00;101438.25;10188783;28;20104;-68
2021/11/21 20:08:32;;;;;;;5.43;1.70;;;;;;;6.42;100.00;101451.84;10192597;28;20084;-69
2021/11/21 20:13:29;;;;;;;3.55;1.00;;;;;;;6.29;100.00;101460.56;10193770;28;20042;-68
2021/11/21 20:18:26;;;;;;;7.47;2.60;;;;;;;6.20;100.00;101467.59;10199291;28;20062;-67
2021/11/21 20:23:24;;;;;;;7.20;1.73;;;;;;;6.01;100.00;101481.69;10189723;28;20049;-69
2021/11/21 20:28:21;;;;;;;4.82;1.35;;;;;;;6.15;100.00;101500.16;10201195;28;20471;-68
2021/11/21 20:38:34;;;;;;;5.40;1.60;;;;;;;6.01;100.00;101500.69;10190979;28;20050;-69
2021/11/21 20:43:30;;;;;;;4.00;1.27;;;;;;;5.97;100.00;101521.31;10185521;28;20487;-69
2021/11/21 20:48:27;;;;;;;4.88;1.42;;;;;;;5.99;100.00;101519.16;10188581;28;20050;-68
2021/11/21 20:53:23;;;;;;;3.30;1.40;;;;;;;5.90;100.00;101526.16;10183021;28;20077;-68
2021/11/21 20:58:21;;;;;;;6.28;1.70;;;;;;;5.84;100.00;101528.00;10186102;28;20041;-68
2021/11/21 21:03:24;;;;;;;6.28;1.20;;;;;;;5.84;100.00;101532.63;10177845;28;20046;-68
2021/11/21 21:08:21;;;;;;;5.32;1.40;;;;;;;5.79;100.00;101546.19;10190498;28;20067;-69
2021/11/21 21:13:17;;;;;;;4.93;1.52;;;;;;;5.78;100.00;101544.53;10195464;28;20054;-68
2021/11/21 21:18:14;;;;;;;5.65;1.63;;;;;;;5.76;100.00;101552.16;10194256;28;20045;-70
2021/11/21 21:23:12;;;;;;;5.05;1.50;;;;;;;5.75;100.00;101567.59;10186285;28;20049;-70
2021/11/21 21:28:08;;;;;;;6.38;1.40;;;;;;;5.63;100.00;101567.81;10191628;28;20050;-71
2021/11/21 21:33:05;;;;;;;5.72;1.40;;;;;;;5.61;100.00;101567.25;10184112;28;20049;-68
2021/11/21 21:38:06;;;;;;;4.55;1.05;;;;;;;5.62;100.00;101585.19;10188534;28;20058;-68
2021/11/21 21:43:03;;;;;;;7.32;1.90;;;;;;;5.50;100.00;101581.88;10186507;28;20038;-69
2021/11/21 21:48:01;;;;;;;4.80;1.10;;;;;;;5.50;100.00;101581.88;10189960;28;20528;-69
2021/11/21 21:52:58;;;;;;;4.00;1.23;;;;;;;5.43;100.00;101592.09;10189851;28;20104;-69
2021/11/21 21:57:54;;;;;;;3.38;1.20;;;;;;;5.31;100.00;101610.47;10189270;28;20062;-69
2021/11/21 22:02:51;;;;;;;4.22;1.50;;;;;;;5.35;100.00;101622.44;10185517;28;20077;-70
2021/11/21 22:07:51;;;;;;;4.65;1.50;;;;;;;5.28;100.00;101628.91;10184678;28;20042;-70
2021/11/21 22:12:48;;;;;;;4.22;1.40;;;;;;;5.17;100.00;101632.59;10189080;28;20160;-70
2021/11/21 22:17:46;;;;;;;4.88;1.20;;;;;;;5.14;100.00;101654.00;10189874;28;21281;-67
2021/11/21 22:22:43;;;;;;;6.22;1.25;;;;;;;5.12;100.00;101651.53;10202036;28;20041;-69
2021/11/21 22:27:40;;;;;;;3.33;1.30;;;;;;;4.98;100.00;101664.69;10188222;28;20104;-69
2021/11/21 22:32:36;;;;;;;3.65;1.08;;;;;;;4.96;100.00;101664.13;10189723;28;20066;-66
2021/11/21 22:37:33;;;;;;;4.95;1.25;;;;;;;4.91;100.00;101676.84;10188636;28;20084;-70
2021/11/21 22:42:29;;;;;;;2.75;1.13;;;;;;;4.68;100.00;101689.59;10198764;28;20069;-70
2021/11/21 22:47:26;;;;;;;5.05;1.25;;;;;;;4.82;100.00;101696.25;10196760;28;20050;-70
2021/11/21 22:52:24;;;;;;;4.25;1.23;;;;;;;4.77;100.00;101698.09;10195204;28;20041;-70